Algiers, Louisiana
Current Conditions -  °F | °C
As of 6:55 PM on Wednesday 22 Oct 2014 (Local Time) from KVSH Reporting Station
Clear Clear  
Wind Chill: 73°   Ceiling: Unl
Heat Index: 73°   Visibility: 10mi
Dew Point: 52°   Wind: 0mph
Humidity: 47%   Direction: NA
Pressure: 30.04"   Gusts: NA
Location:  29.935°N, 90.0314°W
Report Text: KVSH 222355Z AUTO 00000KT 10SM CLR 23/11 A3004 RMK AO1 10260 20230 402600180 52007
Loading
Personal Weather Stations






























Interactive Weather Map
Tropical Storm Tracking
New forecast layout! Learn more

10-Day Weather Forecast

Advertisements
Track Severe Weather on mobile